createdAt,value
2023-01-31T00:00:53.351Z,12.90
2023-01-31T00:05:54.021Z,22.15
2023-01-31T00:10:59.508Z,13.63
2023-01-31T00:16:00.462Z,15.82
2023-01-31T00:21:06.899Z,21.38
2023-01-31T00:26:11.600Z,14.77
2023-01-31T00:31:13.706Z,27.30
2023-01-31T00:36:16.552Z,21.17
2023-01-31T00:41:21.433Z,18.75
2023-01-31T00:46:23.799Z,29.85
2023-01-31T00:51:27.028Z,16.80
2023-01-31T00:56:29.233Z,21.92
2023-01-31T01:01:30.434Z,13.82
2023-01-31T01:06:31.471Z,9.38
2023-01-31T01:11:36.053Z,12.85
2023-01-31T01:16:39.299Z,10.18
2023-01-31T01:21:41.166Z,8.57
2023-01-31T01:26:44.050Z,9.30
2023-01-31T01:31:44.829Z,9.82
2023-01-31T01:36:48.025Z,8.40
2023-01-31T01:41:51.530Z,9.98
2023-01-31T01:46:53.195Z,15.93
2023-01-31T01:51:58.170Z,18.88
2023-01-31T01:57:04.519Z,17.92
2023-01-31T02:02:06.071Z,17.50
2023-01-31T02:07:10.109Z,16.17
2023-01-31T02:12:12.947Z,15.23
2023-01-31T02:17:14.883Z,14.40
2023-01-31T02:22:22.773Z,24.10
2023-01-31T02:27:43.707Z,20.42
2023-01-31T02:32:54.620Z,25.25
2023-01-31T02:38:09.587Z,24.45
2023-01-31T02:43:16.991Z,23.30
2023-01-31T02:48:29.984Z,19.10
2023-01-31T02:53:33.677Z,14.93
2023-01-31T02:58:40.456Z,18.00
2023-01-31T03:03:42.924Z,17.40
2023-01-31T03:08:45.847Z,19.88
2023-01-31T03:13:57.808Z,20.95
2023-01-31T03:19:13.885Z,18.02
2023-01-31T03:24:18.192Z,16.48
2023-01-31T03:29:19.981Z,21.33
2023-01-31T03:34:23.716Z,19.88
2023-01-31T03:39:36.183Z,24.75
2023-01-31T03:44:43.489Z,19.02
2023-01-31T03:49:47.380Z,9.55
2023-01-31T03:55:04.540Z,14.32
2023-01-31T04:00:09.346Z,16.17
2023-01-31T04:05:21.219Z,9.38
2023-01-31T04:10:27.159Z,14.75
2023-01-31T04:15:27.950Z,23.20
2023-01-31T04:20:30.077Z,9.05
2023-01-31T04:25:32.754Z,12.13
2023-01-31T04:30:34.136Z,10.75
2023-01-31T04:35:36.591Z,11.70
2023-01-31T04:40:37.311Z,12.27
2023-01-31T04:45:37.957Z,11.52
2023-01-31T04:50:39.955Z,10.10
2023-01-31T04:55:40.599Z,16.77
2023-01-31T05:00:41.282Z,25.15
2023-01-31T05:05:43.314Z,22.85
2023-01-31T05:10:44.809Z,29.80
2023-01-31T05:15:49.289Z,14.60
2023-01-31T05:20:51.281Z,16.92
2023-01-31T05:25:51.935Z,16.08
2023-01-31T05:30:53.062Z,19.25
2023-01-31T05:35:55.460Z,19.38
2023-01-31T05:40:56.129Z,15.52
2023-01-31T05:45:56.905Z,12.15
2023-01-31T05:50:58.974Z,17.77
2023-01-31T05:55:59.904Z,11.73
2023-01-31T06:01:01.118Z,12.68
2023-01-31T06:06:05.162Z,20.80
2023-01-31T06:11:06.838Z,10.18
2023-01-31T06:16:08.880Z,13.45
2023-01-31T06:21:12.183Z,12.30
2023-01-31T06:26:13.000Z,12.90
2023-01-31T06:31:13.944Z,8.88
2023-01-31T06:36:18.943Z,12.65
2023-01-31T06:41:21.048Z,15.75
2023-01-31T06:46:22.072Z,16.92
2023-01-31T06:51:24.300Z,11.65
2023-01-31T06:56:25.124Z,18.50
2023-01-31T07:01:26.764Z,20.75
2023-01-31T07:06:29.008Z,20.05
2023-01-31T07:11:30.160Z,11.88
2023-01-31T07:16:31.282Z,11.80
2023-01-31T07:21:33.479Z,16.00
2023-01-31T07:26:35.042Z,10.98
2023-01-31T07:31:35.866Z,13.68
2023-01-31T07:36:37.914Z,15.48
2023-01-31T07:41:38.624Z,14.45
2023-01-31T07:46:42.105Z,13.82
2023-01-31T07:51:44.210Z,19.48
2023-01-31T07:56:44.971Z,10.82
2023-01-31T08:02:03.162Z,19.45
2023-01-31T08:07:06.975Z,15.38
2023-01-31T08:12:08.606Z,17.48
2023-01-31T08:17:10.320Z,19.85
2023-01-31T08:22:12.571Z,16.55
2023-01-31T08:27:13.217Z,10.23
2023-01-31T08:32:13.957Z,16.80
2023-01-31T08:37:17.422Z,10.73
2023-01-31T08:42:19.201Z,7.47
2023-01-31T08:47:19.883Z,9.82
2023-01-31T08:52:21.947Z,21.02
2023-01-31T08:57:22.626Z,8.70
2023-01-31T09:02:23.575Z,13.52
2023-01-31T09:07:25.718Z,9.45
2023-01-31T09:12:26.455Z,13.07
2023-01-31T09:17:27.126Z,17.70
2023-01-31T09:22:31.508Z,9.85
2023-01-31T09:27:32.257Z,12.88
2023-01-31T09:32:33.438Z,11.05
2023-01-31T09:37:35.472Z,9.75
2023-01-31T09:42:40.117Z,16.23
2023-01-31T09:47:45.274Z,7.28
2023-01-31T09:52:47.346Z,10.88
2023-01-31T09:57:56.713Z,8.38
2023-01-31T10:03:20.945Z,17.65
2023-01-31T10:08:36.739Z,22.05
2023-01-31T10:13:40.166Z,13.18
2023-01-31T10:18:46.664Z,7.82
2023-01-31T10:23:53.906Z,15.13
2023-01-31T10:29:01.419Z,9.73
2023-01-31T10:34:08.007Z,10.25
2023-01-31T10:39:18.614Z,13.10
2023-01-31T10:44:25.580Z,4.28
2023-01-31T10:49:28.100Z,10.00
2023-01-31T10:54:43.889Z,14.48
2023-01-31T10:59:47.654Z,16.25
2023-01-31T11:04:50.889Z,15.23
2023-01-31T11:09:55.639Z,23.52
2023-01-31T11:15:08.065Z,7.22
2023-01-31T11:20:22.267Z,11.85
2023-01-31T11:25:26.850Z,9.90
2023-01-31T11:30:30.512Z,16.70
2023-01-31T11:35:33.028Z,6.03
2023-01-31T11:40:36.800Z,5.90
2023-01-31T11:45:39.659Z,8.05
2023-01-31T11:50:42.227Z,10.15
2023-01-31T11:55:45.427Z,6.32
2023-01-31T12:00:54.566Z,12.65
2023-01-31T12:06:02.269Z,11.93
2023-01-31T12:11:08.148Z,12.90
2023-01-31T12:16:09.015Z,10.77
2023-01-31T12:21:15.657Z,5.70
2023-01-31T12:26:23.332Z,18.30
2023-01-31T12:31:39.183Z,14.88
2023-01-31T12:36:57.002Z,12.23
2023-01-31T12:42:14.383Z,14.02
2023-01-31T12:47:46.360Z,11.30
2023-01-31T12:52:57.054Z,7.53
2023-01-31T12:58:20.137Z,10.00
2023-01-31T13:03:39.041Z,13.52
2023-01-31T13:08:42.348Z,14.88
2023-01-31T13:13:50.138Z,17.67
2023-01-31T13:18:53.391Z,18.02
2023-01-31T13:23:59.512Z,14.02
2023-01-31T13:29:07.031Z,13.45
2023-01-31T13:34:14.798Z,14.20
2023-01-31T13:39:21.991Z,14.23
2023-01-31T13:44:24.026Z,13.38
2023-01-31T13:49:27.862Z,7.80
2023-01-31T13:54:34.072Z,10.48
2023-01-31T13:59:38.667Z,9.35
2023-01-31T14:04:40.582Z,11.10
2023-01-31T14:09:45.835Z,10.38
2023-01-31T14:14:51.267Z,14.30
2023-01-31T14:20:25.917Z,10.93
2023-01-31T14:25:42.525Z,13.65
2023-01-31T14:30:47.689Z,9.65
2023-01-31T14:36:15.250Z,15.40
2023-01-31T14:41:25.936Z,15.85
2023-01-31T14:47:05.831Z,11.13
2023-01-31T14:52:29.404Z,11.75
2023-01-31T14:57:32.828Z,8.57
2023-01-31T15:03:04.231Z,18.65
2023-01-31T15:08:28.067Z,17.40
2023-01-31T15:13:38.586Z,13.07
2023-01-31T15:18:41.819Z,9.48
2023-01-31T15:23:44.319Z,7.43
2023-01-31T15:28:46.115Z,9.15
2023-01-31T15:33:52.392Z,11.43
2023-01-31T15:38:56.866Z,10.70
2023-01-31T15:44:12.938Z,8.40
2023-01-31T15:49:40.022Z,9.90
2023-01-31T15:54:53.384Z,9.95
2023-01-31T15:59:55.094Z,15.68
2023-01-31T16:04:57.942Z,8.10
2023-01-31T16:10:02.002Z,9.00
2023-01-31T16:15:07.001Z,9.35
2023-01-31T16:20:38.245Z,5.63
2023-01-31T16:25:39.116Z,7.65
2023-01-31T16:30:41.477Z,12.18
2023-01-31T16:35:44.179Z,5.90
2023-01-31T16:40:48.884Z,8.95
2023-01-31T16:45:54.206Z,9.23
2023-01-31T16:50:58.858Z,9.07
2023-01-31T16:56:19.921Z,5.72
2023-01-31T17:01:23.710Z,5.30
2023-01-31T17:06:25.865Z,10.73
2023-01-31T17:11:41.655Z,9.07
2023-01-31T17:16:43.592Z,8.02
2023-01-31T17:21:46.069Z,7.82
2023-01-31T17:26:46.957Z,10.43
2023-01-31T17:31:47.750Z,5.75
2023-01-31T17:36:49.784Z,8.85
2023-01-31T17:41:51.527Z,9.23
2023-01-31T17:46:52.189Z,6.07
2023-01-31T17:51:54.249Z,8.55
2023-01-31T17:56:55.265Z,5.07
2023-01-31T18:01:56.174Z,6.07
2023-01-31T18:06:58.312Z,7.13
2023-01-31T18:11:59.011Z,4.88
2023-01-31T18:16:59.683Z,7.70
2023-01-31T18:22:01.719Z,5.40
2023-01-31T18:27:02.408Z,4.85
2023-01-31T18:32:06.198Z,7.55
2023-01-31T18:37:13.612Z,3.63
2023-01-31T18:42:14.570Z,5.05
2023-01-31T18:47:16.183Z,4.10
2023-01-31T18:52:18.474Z,5.63
2023-01-31T18:57:19.227Z,4.28
2023-01-31T19:02:20.050Z,4.10
2023-01-31T19:07:22.247Z,4.18
2023-01-31T19:12:23.072Z,3.00
2023-01-31T19:17:23.823Z,3.63
2023-01-31T19:22:28.604Z,3.65
2023-01-31T19:27:29.379Z,7.05
2023-01-31T19:32:31.316Z,3.20
2023-01-31T19:37:33.390Z,2.60
2023-01-31T19:42:34.222Z,4.88
2023-01-31T19:47:34.913Z,2.53
2023-01-31T19:52:37.371Z,4.07
2023-01-31T19:57:38.107Z,4.55
2023-01-31T20:02:42.034Z,4.22
2023-01-31T20:07:44.099Z,3.03
2023-01-31T20:12:45.490Z,3.70
2023-01-31T20:17:46.375Z,3.70
2023-01-31T20:22:48.687Z,3.38
2023-01-31T20:27:49.609Z,3.92
2023-01-31T20:32:50.620Z,2.67
2023-01-31T20:37:52.749Z,7.40
2023-01-31T20:42:53.479Z,3.10
2023-01-31T20:47:54.180Z,4.38
2023-01-31T20:52:57.094Z,2.90
2023-01-31T20:57:58.637Z,4.75
2023-01-31T21:02:59.311Z,4.05
2023-01-31T21:08:01.341Z,3.38
2023-01-31T21:13:02.024Z,4.82
2023-01-31T21:18:02.741Z,4.15
2023-01-31T21:23:04.751Z,5.30
2023-01-31T21:28:05.914Z,7.93
2023-01-31T21:33:06.648Z,6.80
2023-01-31T21:38:08.648Z,4.57
2023-01-31T21:43:09.334Z,8.40
2023-01-31T21:48:30.265Z,7.40
2023-01-31T21:53:32.376Z,7.78
2023-01-31T21:58:33.805Z,6.28
2023-01-31T22:03:35.846Z,6.43
2023-01-31T22:08:37.897Z,8.65
2023-01-31T22:13:39.079Z,8.77
2023-01-31T22:18:41.419Z,3.92
2023-01-31T22:23:48.298Z,4.72
2023-01-31T22:28:49.921Z,6.88
2023-01-31T22:33:51.107Z,6.70
2023-01-31T22:38:54.077Z,7.82
2023-01-31T22:43:55.963Z,8.82
2023-01-31T22:48:57.484Z,4.43
2023-01-31T22:53:59.696Z,7.38
2023-01-31T22:59:02.565Z,11.50
2023-01-31T23:04:06.139Z,10.88
2023-01-31T23:09:08.342Z,6.40
2023-01-31T23:14:09.175Z,13.38
2023-01-31T23:19:10.124Z,16.45
2023-01-31T23:24:14.467Z,10.02
2023-01-31T23:29:15.610Z,8.48
2023-01-31T23:34:16.279Z,11.88
2023-01-31T23:39:18.253Z,9.68
2023-01-31T23:44:18.909Z,15.15
2023-01-31T23:49:19.587Z,9.60
2023-01-31T23:54:21.574Z,12.25
2023-01-31T23:59:22.206Z,6.75
